Accueil
METAR-TAF:

METAR-TAF

Aéroports :

Aéroport international Shota-Rustaveli de Tbilissi

Tbilissi, Géorgie

latitude: 41-40-09N, longitude: 044-57-17E, altitude: 495 m

Observation

Le bulletin a été fait il y a 39 minutes, à 15:00 UTC
Vent 6 kt de sud-est
Température 23°C
Humidité 41%
Pression 1013 hPa
Visibilité 10 km ou plus
pas de nuages en-dessous de 1500 mètres et pas de cumulonimbus.

METAR: UGTB 171500Z 14006KT CAVOK 23/09 Q1013 NOSIG

Heure: 19:39 (15:39 UTC)

Prévision

Le bulletin a été fait il y a 4 heures et 39 minutes, à 11:00 UTC
Prévision valable du 17 à 12 UTC au 18 à 12 UTC
Vent 7 kt de sud-est
Visibilité 10 km ou plus
pas de nuages en-dessous de 1500 mètres et pas de cumulonimbus.

TAF: UGTB 171100Z 1712/1812 14007KT CAVOK TX27/1812Z TN12/1802Z

Observations et prévisions météorologiques de plus de 4000 aéroports (messages METAR et TAF).

Les stations disponibles sont représentées par des disques jaunes et rouges sur la carte.

Passer la souris dessus pour voir le nom de la station.

Cliquer dessus pour voir les observations et prévisions météorologiques.

Pour changer de carte: cliquez sur les boutons verts avec une croix noire pour zoomer, sur le bouton vert avec un tiret pour effectuer un zoom arrière, ou sur les flèches vertes pour les cartes adjacentes.


METAR-TAF: